-> Other stations

GoKite Kite Beach

Speed(max): 2.2(3.8)knots
Direction:256° ( WSW)
Temperature: 0.0°C
Arrived: 2022-05-17 19:52:00 AST

Past data:
hh:mmknots
Dir (°)
°C
19:50 3.8 4.9 WSW(249) 0.0
19:47 3.2 4.3 WSW(247) 0.0
19:45 2.7 4.3 WSW(250) 0.0
19:43 3.2 4.9 WSW(256) 0.0
19:41 3.2 4.3 W(261) 0.0
19:39 1.6 3.8 WSW(253) 0.0
19:37 1.6 4.3 WSW(242) 0.0
19:35 3.2 5.4 W(270) 0.0
19:33 0.5 2.7 NW(307) 0.0
19:31 0.5 3.8 S(184) 0.0
19:29 1.6 2.7 S(169) 0.0
19:27 1.6 3.8 SSE(168) 0.0
19:25 2.2 4.3 S(190) 0.0
19:23 2.7 4.3 S(190) 0.0
15 min. averages:
hh:mmknots
Dir (°)
°C
19:45 2.2 5.4 WSW(255) 0.0
19:30 2.7 7 S(171) 0.0
19:15 4.3 11.9 E(100) 0.0
19:00 13 17.3 E(82) 0.0
18:45 13.5 18.4 ENE(76) 0.0
18:30 15.7 18.9 ENE(74) 0.0
18:15 14.6 18.9 ENE(68) 0.0
18:00 11.3 18.4 ENE(61) 0.0
17:45 9.2 14 ENE(57) 0.0
17:30 9.7 15.7 ENE(58) 0.0
17:15 9.7 15.7 ENE(63) 0.0
17:00 11.9 17.8 ENE(62) 0.0
16:45 10.8 17.3 ENE(58) 0.0
16:30 14 17.8 ENE(66) 0.0
16:15 12.4 17.3 ENE(66) 0.0
Stations at DO:
GoKite Kite Beach
La Boca
Playa Manatee
Playa Punta Salinas
Portillo
-> Other regions

Desktop view
Data provided by Holfuy.
© Holfuy Weather 2022